Time;durP1;ratioP1;P1;durP2;ratioP2;P2;SDS_P1;SDS_P2;PMS_P1;PMS_P2;Temp;Humidity;BMP_temperature;BMP_pressure;BME280_temperature;BME280_humidity;BME280_pressure;Samples;Min_cycle;Max_cycle;Signal;HPM_P1;HPM_P2
2023/02/14 00:02:04;;;;;;;38.53;24.55;;;9.10;68.50;;;;;;6245667;22;20008;-74
2023/02/14 00:04:30;;;;;;;34.03;24.65;;;9.10;68.70;;;;;;6245649;22;20012;-75
2023/02/14 00:06:56;;;;;;;31.75;23.58;;;9.00;68.50;;;;;;6245345;23;20012;-74
2023/02/14 00:09:22;;;;;;;31.77;24.80;;;9.00;68.60;;;;;;6244974;23;20012;-74
2023/02/14 00:11:48;;;;;;;30.60;23.55;;;9.00;68.60;;;;;;6232883;23;20284;-74
2023/02/14 00:16:59;;;;;;;32.08;23.42;;;9.00;69.10;;;;;;6245560;23;20062;-76
2023/02/14 00:19:25;;;;;;;31.60;22.83;;;9.00;69.10;;;;;;6245049;23;20004;-74
2023/02/14 00:21:51;;;;;;;35.17;22.65;;;8.90;69.00;;;;;;6218447;23;20001;-74
2023/02/14 00:24:23;;;;;;;29.45;22.35;;;8.90;68.90;;;;;;6245255;23;20019;-74
2023/02/14 00:26:50;;;;;;;34.08;22.52;;;8.80;68.90;;;;;;6245262;23;20441;-75
2023/02/14 00:29:19;;;;;;;29.80;22.65;;;8.80;69.10;;;;;;6259195;22;20043;-75
2023/02/14 00:31:44;;;;;;;35.65;24.75;;;8.80;69.20;;;;;;6275831;22;20034;-74
2023/02/14 00:34:11;;;;;;;40.83;23.98;;;8.80;69.20;;;;;;6275815;22;20000;-75
2023/02/14 00:36:37;;;;;;;34.25;25.10;;;8.70;69.00;;;;;;6276201;22;20000;-75
2023/02/14 00:39:04;;;;;;;33.55;24.52;;;8.70;69.40;;;;;;6275881;22;20049;-75
2023/02/14 00:41:31;;;;;;;34.38;24.70;;;8.70;69.60;;;;;;6275600;22;20000;-75
2023/02/14 00:43:56;;;;;;;32.97;24.25;;;8.70;69.50;;;;;;6248137;22;20042;-75
2023/02/14 00:46:23;;;;;;;32.70;24.92;;;8.70;69.60;;;;;;6275763;22;19996;-75
2023/02/14 00:48:49;;;;;;;40.88;25.73;;;8.70;69.70;;;;;;6275826;22;20388;-75
2023/02/14 00:51:17;;;;;;;41.22;26.95;;;8.70;70.00;;;;;;6275839;22;20000;-75
2023/02/14 00:53:44;;;;;;;41.92;25.90;;;8.70;69.70;;;;;;6248888;22;20507;-76
2023/02/14 00:56:10;;;;;;;35.30;24.65;;;8.60;70.20;;;;;;6248598;22;20050;-73
2023/02/14 00:58:36;;;;;;;36.63;25.20;;;8.60;70.20;;;;;;6275759;22;20006;-75
2023/02/14 01:01:02;;;;;;;31.63;24.17;;;8.60;70.50;;;;;;6248543;22;20008;-75
2023/02/14 01:03:28;;;;;;;32.20;22.88;;;8.60;70.80;;;;;;6248191;22;20019;-74
2023/02/14 01:05:54;;;;;;;36.63;24.42;;;8.60;70.90;;;;;;6275500;22;20421;-75
2023/02/14 01:08:20;;;;;;;31.38;24.23;;;8.60;70.90;;;;;;6248345;22;20012;-74
2023/02/14 01:10:46;;;;;;;31.67;22.60;;;8.60;70.80;;;;;;6275632;22;20016;-76
2023/02/14 01:13:12;;;;;;;32.45;22.33;;;8.60;70.90;;;;;;6275638;22;20003;-75
2023/02/14 01:15:47;;;;;;;28.98;21.58;;;8.60;70.60;;;;;;6275502;22;20082;-74
2023/02/14 01:18:13;;;;;;;30.17;21.35;;;8.50;72.30;;;;;;6248618;22;20008;-75
2023/02/14 01:20:39;;;;;;;26.58;20.30;;;8.60;70.90;;;;;;6249132;22;20014;-75
2023/02/14 01:23:05;;;;;;;28.52;18.80;;;8.60;71.20;;;;;;6248221;22;20012;-74
2023/02/14 01:25:30;;;;;;;28.23;19.48;;;8.70;71.60;;;;;;6275317;22;20337;-75
2023/02/14 01:27:56;;;;;;;28.65;19.30;;;8.60;70.80;;;;;;6275579;22;19999;-75
2023/02/14 01:30:23;;;;;;;25.25;18.55;;;8.60;70.70;;;;;;6275122;22;20051;-74
2023/02/14 01:32:48;;;;;;;28.73;19.58;;;8.50;70.70;;;;;;6275424;22;20011;-74
2023/02/14 01:35:14;;;;;;;25.02;17.90;;;8.40;70.70;;;;;;6275392;22;20007;-74
2023/02/14 01:37:40;;;;;;;27.42;18.40;;;8.40;70.90;;;;;;6275623;22;20452;-75
2023/02/14 01:40:08;;;;;;;25.88;18.67;;;8.40;70.80;;;;;;6248612;22;20012;-74
2023/02/14 01:42:35;;;;;;;22.80;17.38;;;8.40;71.20;;;;;;6248388;22;20031;-75
2023/02/14 01:45:05;;;;;;;24.45;17.73;;;8.40;70.70;;;;;;6275339;22;20043;-74
2023/02/14 01:47:36;;;;;;;24.60;17.35;;;8.40;70.90;;;;;;6275399;22;20006;-75
2023/02/14 01:50:21;;;;;;;26.45;18.17;;;8.40;70.40;;;;;;6275905;22;20417;-74
2023/02/14 01:53:01;;;;;;;25.00;18.50;;;8.40;70.60;;;;;;6275482;22;20053;-74
2023/02/14 01:55:32;;;;;;;27.05;18.80;;;8.30;70.40;;;;;;6275384;22;20035;-75
2023/02/14 01:58:07;;;;;;;24.65;18.10;;;8.30;71.30;;;;;;6275375;22;20011;-74
2023/02/14 02:03:19;;;;;;;31.70;18.38;;;8.20;70.80;;;;;;6277331;22;20069;-75
2023/02/14 02:05:50;;;;;;;28.80;18.80;;;8.20;70.70;;;;;;6277122;22;20434;-75
2023/02/14 02:08:16;;;;;;;27.77;18.67;;;8.20;70.50;;;;;;6277275;22;20034;-74
2023/02/14 02:10:41;;;;;;;23.88;17.77;;;8.20;70.60;;;;;;6276993;22;19999;-75
2023/02/14 02:13:14;;;;;;;27.10;19.27;;;8.20;70.90;;;;;;6277328;22;20003;-74
2023/02/14 02:15:59;;;;;;;25.55;19.08;;;8.20;70.50;;;;;;6277264;22;20000;-75
2023/02/14 02:18:49;;;;;;;27.65;19.17;;;8.10;70.40;;;;;;6277339;22;19999;-73
2023/02/14 02:21:41;;;;;;;25.13;19.05;;;8.10;72.50;;;;;;6277225;22;20000;-74
2023/02/14 02:24:36;;;;;;;31.73;19.73;;;8.00;72.80;;;;;;6276974;22;20039;-74
2023/02/14 02:27:13;;;;;;;29.10;19.42;;;7.90;72.70;;;;;;6277218;22;20031;-74
2023/02/14 02:30:03;;;;;;;29.92;20.42;;;7.90;72.80;;;;;;6277142;22;20047;-75
2023/02/14 02:32:57;;;;;;;27.67;20.65;;;7.90;73.00;;;;;;6277055;22;20000;-75
2023/02/14 02:35:26;;;;;;;;;;;7.80;72.90;;;;;;6277365;22;20022;-75
2023/02/14 02:38:28;;;;;;;31.85;22.00;;;7.80;73.90;;;;;;6277074;22;19899;-75
2023/02/14 02:41:37;;;;;;;32.05;22.98;;;7.70;72.90;;;;;;6277387;22;19995;-75
2023/02/14 02:44:33;;;;;;;31.30;23.48;;;7.70;73.30;;;;;;6277183;22;20008;-74
2023/02/14 02:47:28;;;;;;;33.30;24.83;;;7.70;71.80;;;;;;6214352;22;20015;-72
2023/02/14 02:53:34;;;;;;;31.42;23.70;;;7.50;73.40;;;;;;6277556;22;20046;-75
2023/02/14 02:58:59;;;;;;;32.30;23.45;;;7.50;71.80;;;;;;6276680;22;20081;-75
2023/02/14 03:01:32;;;;;;;34.58;23.98;;;7.30;72.50;;;;;;6276804;22;20010;-75
2023/02/14 03:06:47;;;;;;;30.13;22.27;;;7.40;72.30;;;;;;6277500;22;20026;-74
2023/02/14 03:09:18;;;;;;;35.78;24.30;;;7.30;72.70;;;;;;6299860;22;20074;-74
2023/02/14 03:11:56;;;;;;;33.33;23.25;;;7.40;72.60;;;;;;6302168;22;20004;-73
2023/02/14 03:14:34;;;;;;;33.00;22.75;;;7.40;73.80;;;;;;6262695;22;20008;-75
2023/02/14 03:17:19;;;;;;;35.10;23.83;;;7.40;72.50;;;;;;6250123;22;20091;-75
2023/02/14 03:20:12;;;;;;;34.10;23.08;;;7.30;72.80;;;;;;6250003;22;20011;-75
2023/02/14 03:22:58;;;;;;;33.60;21.80;;;7.20;73.60;;;;;;6276456;22;20007;-74
2023/02/14 03:25:52;;;;;;;30.13;21.38;;;7.30;74.30;;;;;;6276456;22;20133;-74
2023/02/14 03:28:25;;;;;;;31.08;22.38;;;7.20;73.90;;;;;;6276307;22;19996;-74
2023/02/14 03:31:17;;;;;;;29.73;21.63;;;7.30;73.90;;;;;;6276969;22;19999;-74
2023/02/14 03:34:06;;;;;;;28.48;21.02;;;7.30;74.10;;;;;;6276284;22;20007;-75
2023/02/14 03:36:44;;;;;;;28.40;21.95;;;7.30;72.60;;;;;;6274819;22;20003;-75
2023/02/14 03:39:10;;;;;;;26.50;20.73;;;7.20;72.40;;;;;;6276272;22;19999;-74
2023/02/14 03:41:42;;;;;;;30.67;22.15;;;7.10;72.60;;;;;;6249086;22;20426;-76
2023/02/14 03:44:10;;;;;;;27.05;20.85;;;7.10;73.10;;;;;;6276019;22;20418;-75
2023/02/14 03:46:45;;;;;;;30.90;22.45;;;6.90;73.00;;;;;;6249283;22;20349;-74
2023/02/14 03:49:16;;;;;;;29.25;21.75;;;6.90;73.10;;;;;;6276014;22;20031;-75
2023/02/14 03:51:46;;;;;;;30.80;21.27;;;6.90;73.50;;;;;;6276379;22;20004;-75
2023/02/14 03:54:13;;;;;;;28.58;21.65;;;6.80;73.30;;;;;;6276090;22;20002;-74
2023/02/14 03:56:48;;;;;;;28.92;20.67;;;6.70;73.40;;;;;;6249152;22;20008;-75
2023/02/14 03:59:21;;;;;;;26.75;21.08;;;6.70;73.80;;;;;;6276118;22;20040;-74
2023/02/14 04:02:00;;;;;;;30.75;21.35;;;6.70;74.00;;;;;;6276154;22;19995;-75
2023/02/14 04:04:29;;;;;;;27.95;21.50;;;6.70;73.80;;;;;;6276011;22;20012;-74
2023/02/14 04:06:55;;;;;;;33.08;21.65;;;6.70;73.70;;;;;;6249038;22;20011;-74
2023/02/14 04:09:21;;;;;;;30.65;21.80;;;6.80;73.80;;;;;;6275946;22;20065;-73
2023/02/14 04:11:49;;;;;;;29.15;20.88;;;6.80;73.50;;;;;;6276105;22;20003;-74
2023/02/14 04:14:15;;;;;;;28.85;21.08;;;6.80;73.40;;;;;;6275823;22;19996;-74
2023/02/14 04:19:26;;;;;;;37.97;22.55;;;6.90;73.80;;;;;;6275958;22;20069;-75
2023/02/14 04:21:52;;;;;;;27.48;20.85;;;6.90;73.50;;;;;;6275799;22;20368;-74
2023/02/14 04:24:18;;;;;;;31.05;20.73;;;6.90;73.40;;;;;;6275186;22;20034;-74
2023/02/14 04:27:08;;;;;;;26.50;20.85;;;6.80;73.10;;;;;;6275706;22;19999;-74
2023/02/14 04:29:30;;;;;;;33.88;22.38;;;6.80;73.50;;;;;;6275022;22;20039;-75
2023/02/14 04:31:56;;;;;;;30.40;22.20;;;6.80;73.80;;;;;;6275745;22;20307;-74
2023/02/14 04:34:21;;;;;;;30.73;22.08;;;6.80;73.40;;;;;;6275539;22;19999;-74
2023/02/14 04:36:47;;;;;;;28.35;21.23;;;6.70;73.80;;;;;;6275890;22;20000;-74
2023/02/14 04:39:13;;;;;;;31.00;21.55;;;6.70;73.50;;;;;;6275648;22;20357;-74
2023/02/14 04:41:38;;;;;;;32.92;21.73;;;6.70;73.40;;;;;;6275849;22;20038;-75
2023/02/14 04:44:04;;;;;;;29.30;22.02;;;6.60;73.80;;;;;;6275984;22;20015;-73
2023/02/14 04:46:30;;;;;;;28.58;21.25;;;6.60;74.10;;;;;;6275504;22;20000;-74
2023/02/14 04:48:55;;;;;;;27.20;21.65;;;6.50;74.20;;;;;;6248577;22;20015;-74
2023/02/14 04:51:21;;;;;;;29.23;21.75;;;6.50;74.30;;;;;;6275546;22;20061;-74
2023/02/14 04:53:47;;;;;;;31.15;22.17;;;6.50;74.30;;;;;;6275766;22;20377;-74
2023/02/14 04:56:12;;;;;;;28.95;21.52;;;6.50;74.40;;;;;;6275556;22;20376;-74
2023/02/14 04:58:38;;;;;;;36.60;25.00;;;6.50;74.10;;;;;;6275660;22;20448;-74
2023/02/14 05:01:04;;;;;;;32.05;22.35;;;6.50;74.00;;;;;;6275543;22;20004;-74
2023/02/14 05:03:29;;;;;;;33.75;22.67;;;6.50;74.00;;;;;;6275558;22;20445;-74
2023/02/14 05:05:55;;;;;;;32.97;21.27;;;6.60;73.90;;;;;;6248897;22;20097;-76
2023/02/14 05:08:21;;;;;;;26.92;19.77;;;6.60;74.00;;;;;;6248523;22;20023;-74
2023/02/14 05:10:46;;;;;;;28.05;20.67;;;6.60;73.60;;;;;;6275486;22;20004;-75
2023/02/14 05:13:13;;;;;;;26.10;19.65;;;6.60;73.90;;;;;;6276088;22;20082;-75
2023/02/14 05:15:38;;;;;;;27.13;18.73;;;6.60;73.80;;;;;;6275535;22;20030;-75
2023/02/14 05:18:04;;;;;;;26.55;19.60;;;6.60;73.20;;;;;;6275939;22;20074;-74
2023/02/14 05:20:30;;;;;;;28.25;20.02;;;6.70;73.40;;;;;;6275825;22;19999;-74
2023/02/14 05:23:02;;;;;;;26.83;19.30;;;6.60;73.70;;;;;;6248310;22;20082;-75
2023/02/14 05:25:31;;;;;;;26.63;20.55;;;6.60;73.40;;;;;;6275270;22;20008;-75
2023/02/14 05:27:57;;;;;;;25.55;19.73;;;6.60;73.90;;;;;;6275440;22;20086;-75
2023/02/14 05:30:26;;;;;;;28.02;20.58;;;6.50;74.20;;;;;;6274971;22;20073;-75
2023/02/14 05:32:53;;;;;;;30.00;20.30;;;6.40;74.40;;;;;;6248365;22;20070;-75
2023/02/14 05:35:19;;;;;;;26.85;20.23;;;6.40;74.10;;;;;;6277044;22;20007;-76
2023/02/14 05:37:45;;;;;;;25.80;19.17;;;6.40;74.30;;;;;;6277446;22;20003;-76
2023/02/14 05:40:12;;;;;;;28.58;19.27;;;6.30;74.50;;;;;;6277484;22;20333;-76
2023/02/14 05:42:39;;;;;;;24.30;19.67;;;6.30;74.70;;;;;;6277244;22;19999;-75
2023/02/14 05:45:05;;;;;;;26.05;19.17;;;6.30;74.50;;;;;;6277250;22;20008;-75
2023/02/14 05:47:31;;;;;;;27.27;19.42;;;6.30;74.80;;;;;;6277173;22;20011;-74
2023/02/14 05:49:56;;;;;;;26.95;18.85;;;6.20;74.20;;;;;;6276997;22;20000;-75
2023/02/14 05:52:23;;;;;;;25.73;19.65;;;6.20;74.50;;;;;;6277402;22;20007;-74
2023/02/14 05:54:48;;;;;;;28.50;20.25;;;6.20;74.70;;;;;;6277260;22;20000;-76
2023/02/14 05:57:14;;;;;;;31.38;19.25;;;6.10;74.70;;;;;;6277085;22;20089;-75
2023/02/14 05:59:40;;;;;;;28.20;19.67;;;6.10;75.30;;;;;;6276859;22;20100;-75
2023/02/14 06:02:05;;;;;;;28.50;18.40;;;6.10;74.90;;;;;;6277151;22;20079;-74
2023/02/14 06:04:31;;;;;;;30.60;18.02;;;6.10;74.90;;;;;;6276933;22;20035;-73
2023/02/14 06:06:57;;;;;;;27.92;18.95;;;6.10;74.90;;;;;;6276964;22;20000;-75
2023/02/14 06:09:23;;;;;;;32.15;20.08;;;6.10;74.80;;;;;;6249569;22;20012;-75
2023/02/14 06:11:48;;;;;;;23.48;17.77;;;6.20;74.80;;;;;;6276962;22;20072;-74
2023/02/14 06:14:14;;;;;;;27.65;17.30;;;6.20;74.80;;;;;;6276865;22;20004;-75
2023/02/14 06:16:40;;;;;;;29.13;17.80;;;6.30;74.70;;;;;;6276461;22;20003;-75
2023/02/14 06:19:06;;;;;;;23.15;16.42;;;6.30;74.70;;;;;;6276956;22;20003;-73
2023/02/14 06:21:31;;;;;;;24.65;17.00;;;6.30;74.40;;;;;;6276695;22;20476;-74
2023/02/14 06:23:57;;;;;;;25.85;17.25;;;6.30;74.40;;;;;;6276573;22;20015;-74
2023/02/14 06:26:26;;;;;;;22.42;17.13;;;6.30;74.50;;;;;;6276612;22;20000;-73
2023/02/14 06:28:53;;;;;;;26.40;18.17;;;6.30;74.40;;;;;;6276429;22;20007;-75
2023/02/14 06:31:19;;;;;;;27.08;17.52;;;6.30;74.40;;;;;;6276641;22;20003;-75
2023/02/14 06:33:45;;;;;;;24.38;17.58;;;6.40;74.50;;;;;;6276180;22;20010;-72
2023/02/14 06:36:11;;;;;;;24.65;16.25;;;6.50;74.20;;;;;;6276666;22;20027;-74
2023/02/14 06:38:37;;;;;;;23.75;16.98;;;6.50;74.00;;;;;;6276311;22;20020;-74
2023/02/14 06:41:06;;;;;;;25.58;17.95;;;6.50;74.00;;;;;;6276313;22;20022;-75
2023/02/14 06:43:32;;;;;;;28.50;17.75;;;6.60;73.60;;;;;;6276114;22;20011;-75
2023/02/14 06:45:58;;;;;;;22.50;15.35;;;6.60;73.50;;;;;;6276404;22;20413;-75
2023/02/14 06:48:24;;;;;;;26.58;16.98;;;6.50;73.20;;;;;;6277906;22;20000;-74
2023/02/14 06:50:51;;;;;;;26.05;16.70;;;6.50;73.30;;;;;;6277040;22;20006;-75
2023/02/14 06:53:17;;;;;;;23.15;16.90;;;6.60;73.50;;;;;;6276733;22;20082;-72
2023/02/14 06:55:43;;;;;;;30.50;17.25;;;6.60;72.70;;;;;;6276176;22;20007;-72
2023/02/14 06:58:09;;;;;;;33.60;18.13;;;6.60;73.10;;;;;;6276476;22;20061;-73
2023/02/14 07:00:34;;;;;;;22.33;16.92;;;6.70;73.50;;;;;;6276439;22;20090;-75
2023/02/14 07:03:00;;;;;;;33.38;18.05;;;6.80;73.00;;;;;;6249053;22;20472;-74
2023/02/14 07:05:26;;;;;;;25.25;15.88;;;6.80;73.10;;;;;;6248524;22;20019;-73
2023/02/14 07:07:52;;;;;;;25.00;16.30;;;6.90;72.70;;;;;;6275888;22;20057;-72
2023/02/14 07:10:17;;;;;;;23.52;14.93;;;7.00;71.50;;;;;;6248859;22;20008;-73
2023/02/14 07:12:43;;;;;;;49.25;16.83;;;7.00;72.20;;;;;;6276228;22;20014;-70
2023/02/14 07:15:11;;;;;;;22.83;14.50;;;7.20;71.20;;;;;;6276078;22;20007;-72
2023/02/14 07:17:37;;;;;;;24.42;15.27;;;7.40;71.50;;;;;;6275798;22;19999;-72
2023/02/14 07:20:05;;;;;;;20.63;14.77;;;7.60;70.00;;;;;;6248966;22;20046;-71
2023/02/14 07:22:31;;;;;;;23.50;15.20;;;7.60;70.00;;;;;;6248382;22;20453;-72
2023/02/14 07:24:57;;;;;;;21.45;14.63;;;7.70;69.00;;;;;;6248323;22;20137;-71
2023/02/14 07:27:23;;;;;;;25.00;14.90;;;7.70;68.50;;;;;;6248562;22;20028;-71
2023/02/14 07:29:49;;;;;;;29.08;15.75;;;7.80;68.90;;;;;;6275337;22;20095;-71
2023/02/14 07:32:14;;;;;;;22.30;14.43;;;7.90;68.70;;;;;;6275906;22;20039;-73
2023/02/14 07:34:40;;;;;;;20.45;13.65;;;8.00;68.40;;;;;;6275837;22;20006;-73
2023/02/14 07:37:06;;;;;;;22.02;14.65;;;7.90;68.40;;;;;;6248574;22;20331;-70
2023/02/14 07:39:32;;;;;;;22.42;14.35;;;8.00;68.30;;;;;;6275920;22;20003;-74
2023/02/14 07:41:58;;;;;;;21.88;15.10;;;8.10;68.30;;;;;;6275930;22;20432;-73
2023/02/14 07:44:23;;;;;;;20.75;15.05;;;8.10;68.00;;;;;;6275586;22;20038;-75
2023/02/14 07:46:49;;;;;;;24.80;14.80;;;8.20;67.70;;;;;;6275262;22;19996;-73
2023/02/14 07:49:15;;;;;;;22.45;14.35;;;8.30;67.20;;;;;;6275531;22;20000;-73
2023/02/14 07:51:40;;;;;;;26.08;14.82;;;8.40;67.60;;;;;;6275534;22;20000;-73
2023/02/14 07:54:06;;;;;;;26.15;15.15;;;8.40;67.00;;;;;;6275837;22;20000;-73
2023/02/14 07:56:32;;;;;;;22.23;14.63;;;8.50;66.40;;;;;;6248440;22;20105;-73
2023/02/14 07:58:58;;;;;;;28.85;14.50;;;8.60;67.00;;;;;;6275383;22;20003;-74
2023/02/14 08:01:24;;;;;;;24.40;14.65;;;8.60;66.50;;;;;;6248377;22;20090;-72
2023/02/14 08:03:50;;;;;;;20.75;13.85;;;8.70;66.00;;;;;;6276240;22;20012;-72
2023/02/14 08:06:17;;;;;;;22.00;14.45;;;8.70;66.20;;;;;;6276108;22;20311;-72
2023/02/14 08:08:43;;;;;;;26.90;14.05;;;8.60;65.90;;;;;;6275674;22;20004;-73
2023/02/14 08:11:09;;;;;;;22.42;14.73;;;8.70;66.40;;;;;;6276131;22;20057;-73
2023/02/14 08:13:35;;;;;;;24.33;14.30;;;8.60;66.00;;;;;;6275778;22;20099;-73
2023/02/14 08:16:04;;;;;;;22.30;15.13;;;8.70;65.90;;;;;;6275639;22;20004;-71
2023/02/14 08:18:36;;;;;;;19.95;15.15;;;8.70;66.00;;;;;;6275699;22;20433;-73
2023/02/14 08:21:02;;;;;;;22.48;14.73;;;8.70;65.70;;;;;;6275718;22;19999;-72
2023/02/14 08:23:28;;;;;;;19.58;13.93;;;8.60;65.40;;;;;;6275047;22;20000;-72
2023/02/14 08:25:54;;;;;;;28.42;15.05;;;8.60;65.60;;;;;;6274781;22;20004;-72
2023/02/14 08:28:20;;;;;;;25.90;14.35;;;8.60;65.80;;;;;;6274950;22;20002;-72
2023/02/14 08:30:46;;;;;;;21.95;14.18;;;8.60;65.80;;;;;;6247938;22;20023;-73
2023/02/14 08:33:12;;;;;;;22.95;15.32;;;8.60;65.50;;;;;;6275543;22;20031;-73
2023/02/14 08:35:37;;;;;;;24.17;15.60;;;8.60;65.40;;;;;;6275232;22;20081;-74
2023/02/14 08:38:04;;;;;;;34.00;15.57;;;8.70;65.60;;;;;;6248447;22;20016;-73
2023/02/14 08:40:29;;;;;;;26.85;15.32;;;8.70;65.60;;;;;;6275584;22;20414;-72
2023/02/14 08:42:55;;;;;;;20.38;15.23;;;8.70;65.50;;;;;;6275357;22;20030;-74
2023/02/14 08:45:21;;;;;;;25.08;14.93;;;8.80;65.70;;;;;;6275191;22;20488;-73
2023/02/14 08:47:47;;;;;;;25.80;15.00;;;8.90;65.60;;;;;;6275598;22;19995;-74
2023/02/14 08:50:16;;;;;;;21.05;14.13;;;8.90;65.40;;;;;;6275354;22;20010;-72
2023/02/14 08:52:42;;;;;;;26.52;14.68;;;8.90;65.40;;;;;;6248182;22;20027;-72
2023/02/14 08:55:08;;;;;;;25.60;14.93;;;9.00;65.30;;;;;;6248010;22;20008;-72
2023/02/14 08:57:34;;;;;;;24.58;14.98;;;9.00;65.30;;;;;;6247887;22;20011;-73
2023/02/14 09:00:00;;;;;;;25.35;14.68;;;9.10;65.30;;;;;;6275438;22;20004;-72
2023/02/14 09:02:26;;;;;;;26.08;14.73;;;9.10;65.10;;;;;;6275326;22;20311;-73
2023/02/14 09:04:51;;;;;;;24.08;14.05;;;9.20;64.90;;;;;;6275044;22;20426;-72
2023/02/14 09:07:18;;;;;;;21.45;14.35;;;9.20;64.90;;;;;;6248062;22;20046;-73
2023/02/14 09:09:44;;;;;;;22.92;14.80;;;9.30;64.90;;;;;;6276992;22;20027;-72
2023/02/14 09:12:10;;;;;;;22.80;15.88;;;9.30;64.60;;;;;;6277202;22;20007;-73
2023/02/14 09:14:45;;;;;;;23.38;15.75;;;9.40;64.60;;;;;;6277493;22;20000;-72
2023/02/14 09:17:12;;;;;;;28.65;15.63;;;9.40;65.40;;;;;;6277064;22;20105;-72
2023/02/14 09:19:38;;;;;;;27.13;15.05;;;9.50;64.70;;;;;;6277394;22;20018;-72
2023/02/14 09:22:06;;;;;;;21.67;14.60;;;9.50;64.60;;;;;;6250129;22;20036;-74
2023/02/14 09:24:33;;;;;;;34.80;15.80;;;9.50;64.40;;;;;;6249784;22;20012;-73
2023/02/14 09:26:59;;;;;;;26.15;15.27;;;9.50;64.40;;;;;;6277053;22;20422;-73
2023/02/14 09:29:26;;;;;;;23.27;14.65;;;9.50;64.50;;;;;;6249509;22;20049;-72
2023/02/14 09:31:53;;;;;;;23.40;14.13;;;9.60;64.10;;;;;;6277627;22;19996;-74
2023/02/14 09:34:18;;;;;;;23.33;14.80;;;9.70;64.30;;;;;;6277789;22;20460;-73
2023/02/14 09:39:28;;;;;;;21.50;14.20;;;9.80;64.30;;;;;;6278962;22;20019;-73
2023/02/14 09:41:57;;;;;;;24.27;15.20;;;9.90;63.90;;;;;;6250979;22;20150;-73
2023/02/14 09:44:36;;;;;;;25.33;13.93;;;10.00;63.00;;;;;;6277196;22;20064;-73
2023/02/14 09:47:22;;;;;;;24.60;15.07;;;10.10;62.80;;;;;;6277174;22;19996;-73
2023/02/14 09:49:49;;;;;;;24.05;15.45;;;10.20;62.70;;;;;;6277032;22;20059;-72
2023/02/14 09:52:17;;;;;;;22.95;15.30;;;10.20;62.20;;;;;;6249999;22;20010;-73
2023/02/14 09:54:48;;;;;;;18.85;13.93;;;10.30;62.30;;;;;;6249975;22;20465;-72
2023/02/14 09:57:20;;;;;;;22.77;13.80;;;10.40;61.90;;;;;;6249274;22;20010;-73
2023/02/14 10:00:10;;;;;;;26.02;14.43;;;10.50;62.40;;;;;;6276847;22;20031;-73
2023/02/14 10:03:21;;;;;;;19.20;12.95;;;10.60;62.40;;;;;;6276794;22;20394;-73
2023/02/14 10:06:13;;;;;;;20.40;13.10;;;10.70;62.10;;;;;;6192540;22;20385;-72
2023/02/14 10:09:26;;;;;;;17.90;13.35;;;10.80;61.90;;;;;;6277232;22;19999;-73
2023/02/14 10:11:52;;;;;;;24.33;13.95;;;10.80;61.90;;;;;;6194758;22;20086;-72
2023/02/14 10:14:22;;;;;;;19.80;13.98;;;10.90;61.30;;;;;;6277917;22;20030;-72
2023/02/14 10:16:56;;;;;;;19.23;13.40;;;11.00;60.90;;;;;;6276681;22;19996;-72
2023/02/14 10:19:27;;;;;;;17.83;13.35;;;11.10;61.70;;;;;;6276846;22;20079;-71
2023/02/14 10:21:59;;;;;;;28.70;13.88;;;11.20;61.50;;;;;;6276003;22;20007;-72
2023/02/14 10:24:30;;;;;;;22.75;13.38;;;11.30;60.50;;;;;;6276343;22;20041;-73
2023/02/14 10:27:02;;;;;;;21.90;13.05;;;11.40;60.20;;;;;;6249443;22;20004;-72
2023/02/14 10:29:28;;;;;;;20.35;13.20;;;11.50;60.20;;;;;;6276090;22;20099;-72
2023/02/14 10:32:00;;;;;;;19.52;13.05;;;11.60;60.00;;;;;;6276187;22;20003;-72
2023/02/14 10:34:37;;;;;;;20.50;14.07;;;11.70;59.70;;;;;;6248973;22;20016;-73
2023/02/14 10:37:28;;;;;;;25.52;13.75;;;11.80;60.30;;;;;;6276822;22;20031;-72
2023/02/14 10:40:17;;;;;;;20.67;13.63;;;11.90;60.00;;;;;;6276663;22;20066;-73
2023/02/14 10:42:54;;;;;;;18.58;13.25;;;12.00;60.10;;;;;;6248958;22;20018;-72
2023/02/14 10:45:32;;;;;;;22.15;13.85;;;12.00;59.80;;;;;;6248561;22;20454;-72
2023/02/14 10:48:12;;;;;;;19.15;13.02;;;12.20;59.10;;;;;;6276521;22;20053;-72
2023/02/14 10:50:40;;;;;;;17.92;11.88;;;12.20;58.60;;;;;;6276341;22;20103;-73
2023/02/14 10:53:08;;;;;;;21.13;12.45;;;12.30;58.90;;;;;;6276730;22;20015;-73
2023/02/14 10:55:48;;;;;;;18.90;12.70;;;12.30;59.50;;;;;;6248829;22;20015;-73
2023/02/14 10:58:17;;;;;;;19.40;13.52;;;12.50;58.90;;;;;;6275899;22;20007;-73
2023/02/14 11:00:52;;;;;;;19.65;13.25;;;12.60;58.70;;;;;;6276115;22;20413;-71
2023/02/14 11:03:18;;;;;;;19.45;14.40;;;12.60;59.10;;;;;;6275873;22;20090;-71
2023/02/14 11:05:48;;;;;;;16.42;12.48;;;12.70;58.50;;;;;;6275716;22;20099;-73
2023/02/14 11:08:24;;;;;;;20.15;12.85;;;12.80;58.50;;;;;;6248906;22;20007;-73
2023/02/14 11:10:51;;;;;;;21.13;12.13;;;12.90;58.50;;;;;;6276072;22;20000;-74
2023/02/14 11:13:34;;;;;;;16.55;11.25;;;13.00;58.30;;;;;;6276431;22;20003;-73
2023/02/14 11:16:07;;;;;;;20.63;11.93;;;13.10;58.10;;;;;;6248831;22;20473;-73
2023/02/14 11:18:34;;;;;;;20.73;11.73;;;13.10;57.50;;;;;;6276228;22;20000;-72
2023/02/14 11:21:07;;;;;;;20.02;10.77;;;13.20;57.00;;;;;;6248800;22;20012;-73
2023/02/14 11:23:45;;;;;;;17.92;12.13;;;13.30;57.00;;;;;;6275542;22;19996;-72
2023/02/14 11:26:22;;;;;;;14.13;10.65;;;13.40;57.20;;;;;;6276329;22;20019;-73
2023/02/14 11:28:59;;;;;;;23.25;11.48;;;13.50;56.60;;;;;;6252987;22;20106;-73
2023/02/14 11:31:28;;;;;;;19.90;11.48;;;13.60;56.90;;;;;;6276454;22;20003;-72
2023/02/14 11:33:54;;;;;;;17.48;10.80;;;13.70;56.20;;;;;;6276049;22;20279;-72
2023/02/14 11:36:20;;;;;;;15.43;10.77;;;13.70;56.10;;;;;;6274577;22;20039;-73
2023/02/14 11:39:12;;;;;;;17.50;10.43;;;13.80;56.10;;;;;;6276774;22;20003;-73
2023/02/14 11:41:48;;;;;;;16.17;10.02;;;13.90;55.90;;;;;;6276162;22;20079;-72
2023/02/14 11:44:23;;;;;;;18.52;10.55;;;14.00;55.60;;;;;;6276093;22;20090;-74
2023/02/14 11:46:54;;;;;;;16.20;10.77;;;14.10;55.30;;;;;;6276357;22;19996;-74
2023/02/14 11:49:34;;;;;;;19.67;11.10;;;14.20;55.30;;;;;;6276548;22;20334;-74
2023/02/14 11:52:14;;;;;;;16.38;11.32;;;14.30;55.20;;;;;;6276908;22;20003;-73
2023/02/14 11:54:40;;;;;;;14.13;10.55;;;14.40;54.90;;;;;;6276266;22;20003;-73
2023/02/14 11:57:10;;;;;;;14.25;9.98;;;14.50;54.90;;;;;;6275896;22;20027;-72
2023/02/14 11:59:46;;;;;;;16.38;10.18;;;14.50;54.00;;;;;;6276383;22;19999;-74
2023/02/14 12:02:26;;;;;;;15.63;8.57;;;14.50;53.80;;;;;;6276658;22;20053;-73
2023/02/14 12:04:57;;;;;;;16.75;10.65;;;14.60;53.90;;;;;;6276048;22;20120;-73
2023/02/14 12:07:29;;;;;;;15.07;9.30;;;14.80;53.60;;;;;;6275097;22;20388;-73
2023/02/14 12:10:16;;;;;;;15.73;9.93;;;14.90;53.30;;;;;;6274931;22;20032;-73
2023/02/14 12:12:48;;;;;;;20.27;9.45;;;15.00;53.90;;;;;;6276701;22;20271;-73
2023/02/14 12:15:20;;;;;;;18.13;10.07;;;15.10;52.60;;;;;;6274519;22;20050;-73
2023/02/14 12:17:48;;;;;;;16.27;9.27;;;15.10;52.50;;;;;;6275340;22;19996;-73
2023/02/14 12:20:36;;;;;;;14.10;9.35;;;15.10;51.00;;;;;;6275759;22;20283;-74
2023/02/14 12:23:31;;;;;;;15.90;9.70;;;15.10;52.10;;;;;;6273770;22;20008;-74
2023/02/14 12:26:38;;;;;;;14.27;9.90;;;15.20;50.60;;;;;;6275310;22;20011;-73
2023/02/14 12:29:28;;;;;;;16.00;9.90;;;15.30;52.20;;;;;;6274105;22;20016;-73
2023/02/14 12:32:01;;;;;;;12.48;9.10;;;15.30;51.60;;;;;;6275964;22;20080;-73
2023/02/14 12:34:27;;;;;;;15.85;9.27;;;15.40;49.40;;;;;;6275375;22;20027;-72
2023/02/14 12:37:12;;;;;;;16.40;9.73;;;15.40;49.70;;;;;;6275487;22;20006;-73
2023/02/14 12:39:53;;;;;;;16.23;9.85;;;15.60;48.80;;;;;;6274992;22;20006;-72
2023/02/14 12:42:44;;;;;;;14.45;9.55;;;15.60;49.10;;;;;;6274921;22;20027;-73
2023/02/14 12:45:24;;;;;;;15.10;9.70;;;15.70;51.10;;;;;;6274695;22;20012;-73
2023/02/14 12:48:11;;;;;;;11.93;9.27;;;15.70;50.70;;;;;;6274926;22;19995;-73
2023/02/14 12:50:41;;;;;;;16.52;9.70;;;15.70;50.60;;;;;;6275163;22;20435;-72
2023/02/14 12:53:45;;;;;;;23.55;10.55;;;15.70;48.70;;;;;;6274891;22;20413;-72
2023/02/14 12:56:16;;;;;;;13.70;9.32;;;15.70;50.20;;;;;;6275079;22;20409;-73
2023/02/14 12:59:17;;;;;;;17.63;10.07;;;15.80;48.70;;;;;;6273387;22;20051;-73
2023/02/14 13:02:07;;;;;;;14.68;10.00;;;15.90;50.00;;;;;;6274900;22;20337;-72
2023/02/14 13:05:14;;;;;;;14.65;10.07;;;16.00;49.60;;;;;;6274861;22;20008;-72
2023/02/14 13:07:51;;;;;;;14.02;9.77;;;16.00;48.20;;;;;;6272147;22;20014;-72
2023/02/14 13:10:52;;;;;;;14.73;10.10;;;16.20;48.50;;;;;;6275215;22;19999;-74
2023/02/14 13:13:23;;;;;;;15.82;10.38;;;16.20;49.40;;;;;;6274818;22;20026;-74
2023/02/14 13:15:53;;;;;;;16.08;9.75;;;16.30;48.50;;;;;;6274621;22;20460;-73
2023/02/14 13:18:22;;;;;;;16.00;9.95;;;16.40;48.20;;;;;;6275197;22;20375;-73